Time,TemperatureF,DewpointF,PressureIn,WindDirection,WindDirectionDegrees,WindSpeedMPH,WindSpeedGustMPH,Humidity,HourlyPrecipIn,Conditions,Clouds,dailyrainin,SoftwareType,DateUTC
2013-02-19 00:02:00,23.7,-7.8,29.97,WSW,251,0.0,3.1,24,0.00,,---,0.00,VWS V12.07,2013-02-19 05:02:00,
2013-02-19 00:05:00,23.7,-7.8,29.94,WSW,250,0.0,3.1,24,0.00,,---,0.00,VWS V12.07,2013-02-19 05:05:00,
2013-02-19 00:11:00,23.5,-7.9,29.94,WSW,253,3.6,6.3,24,0.00,,---,0.00,VWS V12.07,2013-02-19 05:11:00,
2013-02-19 00:14:00,23.5,-7.9,29.94,SW,231,0.0,0.0,24,0.00,,---,0.00,VWS V12.07,2013-02-19 05:14:00,
2013-02-19 00:18:00,23.5,-7.9,29.94,WSW,257,3.1,5.4,24,0.00,,---,0.00,VWS V12.07,2013-02-19 05:18:00,
2013-02-19 00:27:00,23.5,-7.9,29.94,SW,235,4.0,5.4,24,0.00,,---,0.00,VWS V12.07,2013-02-19 05:27:00,
2013-02-19 00:34:00,23.5,-7.9,29.94,WSW,250,0.0,3.6,24,0.00,,---,0.00,VWS V12.07,2013-02-19 05:34:00,
2013-02-19 00:42:00,23.4,-8.1,29.97,WSW,251,4.0,5.4,24,0.00,,---,0.00,VWS V12.07,2013-02-19 05:42:00,
2013-02-19 00:49:00,23.4,-8.1,29.97,SW,235,0.0,5.8,24,0.00,,---,0.00,VWS V12.07,2013-02-19 05:49:00,
2013-02-19 00:56:00,23.4,-8.1,29.97,West,266,4.0,5.8,24,0.00,,---,0.00,VWS V12.07,2013-02-19 05:56:00,
2013-02-19 01:04:00,23.4,-8.1,29.97,WSW,253,3.6,6.3,24,0.00,,---,0.00,VWS V12.07,2013-02-19 06:04:00,
2013-02-19 01:11:00,23.5,-7.9,29.97,WSW,257,3.6,7.2,24,0.00,,---,0.00,VWS V12.07,2013-02-19 06:11:00,
2013-02-19 01:19:00,23.5,-7.9,29.97,SW,236,2.7,6.3,24,0.00,,---,0.00,VWS V12.07,2013-02-19 06:19:00,
2013-02-19 01:27:00,23.5,-7.9,29.97,West,261,5.4,6.3,24,0.00,,---,0.00,VWS V12.07,2013-02-19 06:27:00,
2013-02-19 01:34:00,23.5,-7.9,29.97,WSW,247,4.0,4.9,24,0.00,,---,0.00,VWS V12.07,2013-02-19 06:34:00,
2013-02-19 01:42:00,23.5,-7.9,29.97,West,260,3.6,4.9,24,0.00,,---,0.00,VWS V12.07,2013-02-19 06:42:00,
2013-02-19 01:50:00,23.4,-8.1,29.97,WSW,248,0.0,4.0,24,0.00,,---,0.00,VWS V12.07,2013-02-19 06:50:00,
2013-02-19 01:58:00,23.4,-8.1,29.97,West,268,0.0,4.0,24,0.00,,---,0.00,VWS V12.07,2013-02-19 06:58:00,
2013-02-19 02:06:00,23.5,-7.9,29.97,WSW,253,3.6,4.9,24,0.00,,---,0.00,VWS V12.07,2013-02-19 07:06:00,
2013-02-19 02:13:00,23.5,-7.9,29.97,SW,230,3.1,4.9,24,0.00,,---,0.00,VWS V12.07,2013-02-19 07:13:00,
2013-02-19 02:21:00,23.9,-7.6,29.97,WSW,251,0.0,4.9,24,0.00,,---,0.00,VWS V12.07,2013-02-19 07:21:00,
2013-02-19 02:27:00,24.1,-7.5,29.97,West,260,0.0,4.9,24,0.00,,---,0.00,VWS V12.07,2013-02-19 07:27:00,
2013-02-19 02:34:00,24.3,-7.3,29.97,SW,222,0.0,3.6,24,0.00,,---,0.00,VWS V12.07,2013-02-19 07:34:00,
2013-02-19 02:39:00,24.4,-7.2,29.97,SW,217,2.7,3.6,24,0.00,,---,0.00,VWS V12.07,2013-02-19 07:39:00,
2013-02-19 02:47:00,24.4,-7.2,29.97,West,264,0.0,0.0,24,0.00,,---,0.00,VWS V12.07,2013-02-19 07:47:00,
2013-02-19 02:54:00,24.4,-7.2,29.97,West,272,0.0,3.1,24,0.00,,---,0.00,VWS V12.07,2013-02-19 07:54:00,
2013-02-19 03:02:00,24.3,-7.3,29.97,West,272,0.0,0.0,24,0.00,,---,0.00,VWS V12.07,2013-02-19 08:02:00,
2013-02-19 03:09:00,24.1,-7.5,29.97,West,272,0.0,0.0,24,0.00,,---,0.00,VWS V12.07,2013-02-19 08:09:00,
2013-02-19 03:17:00,24.1,-7.5,29.97,West,272,0.0,0.0,24,0.00,,---,0.00,VWS V12.07,2013-02-19 08:17:00,
2013-02-19 03:25:00,23.7,-7.8,29.97,West,272,0.0,0.0,24,0.00,,---,0.00,VWS V12.07,2013-02-19 08:25:00,
2013-02-19 03:32:00,23.7,-7.8,29.97,WSW,251,0.0,2.7,24,0.00,,---,0.00,VWS V12.07,2013-02-19 08:32:00,
2013-02-19 03:39:00,23.5,-7.9,29.94,WSW,251,0.0,2.7,24,0.00,,---,0.00,VWS V12.07,2013-02-19 08:39:00,
2013-02-19 03:47:00,23.2,-8.2,29.94,NW,304,0.0,0.0,24,0.00,,---,0.00,VWS V12.07,2013-02-19 08:47:00,
2013-02-19 03:55:00,23.0,-7.6,29.94,NW,304,0.0,0.0,25,0.00,,---,0.00,VWS V12.07,2013-02-19 08:55:00,
2013-02-19 04:03:00,23.0,-7.6,29.94,NW,304,0.0,0.0,25,0.00,,---,0.00,VWS V12.07,2013-02-19 09:03:00,
2013-02-19 04:10:00,23.2,-8.2,29.94,NW,304,0.0,0.0,24,0.00,,---,0.00,VWS V12.07,2013-02-19 09:10:00,
2013-02-19 04:17:00,23.2,-8.2,29.94,NW,304,0.0,0.0,24,0.00,,---,0.00,VWS V12.07,2013-02-19 09:17:00,
2013-02-19 04:24:00,23.2,-8.2,29.94,NW,304,0.0,0.0,24,0.00,,---,0.00,VWS V12.07,2013-02-19 09:24:00,
2013-02-19 04:32:00,23.0,-7.6,29.94,NW,304,0.0,0.0,25,0.00,,---,0.00,VWS V12.07,2013-02-19 09:32:00,
2013-02-19 04:39:00,22.8,-7.7,29.94,NW,304,0.0,0.0,25,0.00,,---,0.00,VWS V12.07,2013-02-19 09:39:00,
2013-02-19 04:45:00,22.8,-7.7,29.94,NW,304,0.0,0.0,25,0.00,,---,0.00,VWS V12.07,2013-02-19 09:45:00,
2013-02-19 04:53:00,23.0,-7.6,29.94,NW,304,0.0,0.0,25,0.00,,---,0.00,VWS V12.07,2013-02-19 09:53:00,
2013-02-19 04:59:00,23.2,-5.8,29.94,NW,304,0.0,0.0,27,0.00,,---,0.00,VWS V12.07,2013-02-19 09:59:00,
2013-02-19 05:07:00,23.4,-5.7,29.94,NW,304,0.0,0.0,27,0.00,,---,0.00,VWS V12.07,2013-02-19 10:07:00,
2013-02-19 05:14:00,23.5,-5.5,29.94,NW,304,0.0,0.0,27,0.00,,---,0.00,VWS V12.07,2013-02-19 10:14:00,
2013-02-19 05:22:00,23.9,-5.2,29.91,NW,304,0.0,0.0,27,0.00,,---,0.00,VWS V12.07,2013-02-19 10:22:00,
2013-02-19 05:29:00,24.3,-4.9,29.91,West,270,3.1,3.1,27,0.00,,---,0.00,VWS V12.07,2013-02-19 10:29:00,
2013-02-19 05:37:00,24.8,-4.4,29.94,WSW,247,0.0,4.0,27,0.00,,---,0.00,VWS V12.07,2013-02-19 10:37:00,
2013-02-19 05:44:00,25.2,-4.9,29.94,West,260,0.0,0.0,26,0.00,,---,0.00,VWS V12.07,2013-02-19 10:44:00,
2013-02-19 05:51:00,25.3,-4.7,29.94,West,260,0.0,2.2,26,0.00,,---,0.00,VWS V12.07,2013-02-19 10:51:00,
2013-02-19 05:58:00,25.3,-4.7,29.94,WSW,253,2.2,3.6,26,0.00,,---,0.00,VWS V12.07,2013-02-19 10:58:00,
2013-02-19 06:06:00,25.5,-4.6,29.94,WSW,248,0.0,4.0,26,0.00,,---,0.00,VWS V12.07,2013-02-19 11:06:00,
2013-02-19 06:13:00,25.7,-4.4,29.94,WSW,248,2.7,4.9,26,0.00,,---,0.00,VWS V12.07,2013-02-19 11:13:00,
2013-02-19 06:21:00,26.1,-4.1,29.94,WSW,241,2.2,3.1,26,0.00,,---,0.00,VWS V12.07,2013-02-19 11:21:00,
2013-02-19 06:29:00,26.2,-4.0,29.94,WSW,253,2.2,2.7,26,0.00,,---,0.00,VWS V12.07,2013-02-19 11:29:00,
2013-02-19 06:37:00,26.6,-3.7,29.91,WSW,252,0.0,2.7,26,0.00,,---,0.00,VWS V12.07,2013-02-19 11:37:00,
2013-02-19 06:44:00,26.8,-3.5,29.91,WSW,252,0.0,0.0,26,0.00,,---,0.00,VWS V12.07,2013-02-19 11:44:00,
2013-02-19 06:52:00,27.0,-3.3,29.91,West,263,3.1,4.0,26,0.00,,---,0.00,VWS V12.07,2013-02-19 11:52:00,
2013-02-19 07:00:00,27.5,-2.9,29.91,SSW,211,0.0,0.0,26,0.00,,---,0.00,VWS V12.07,2013-02-19 12:00:00,
2013-02-19 07:08:00,27.7,-2.7,29.91,WNW,289,0.0,4.9,26,0.00,,---,0.00,VWS V12.07,2013-02-19 12:08:00,
2013-02-19 07:15:00,27.9,-2.6,29.91,WNW,286,0.0,0.0,26,0.00,,---,0.00,VWS V12.07,2013-02-19 12:15:00,
2013-02-19 07:21:00,27.9,-2.6,29.91,WNW,286,0.0,0.0,26,0.00,,---,0.00,VWS V12.07,2013-02-19 12:21:00,
2013-02-19 07:29:00,27.9,-2.6,29.91,SW,231,2.7,3.1,26,0.00,,---,0.00,VWS V12.07,2013-02-19 12:29:00,
2013-02-19 07:36:00,27.9,-2.6,29.91,SW,235,0.0,3.1,26,0.00,,---,0.00,VWS V12.07,2013-02-19 12:36:00,
2013-02-19 07:45:00,28.0,-2.4,29.91,SW,214,0.0,0.0,26,0.00,,---,0.00,VWS V12.07,2013-02-19 12:45:00,
2013-02-19 07:52:00,28.2,-2.2,29.91,WSW,252,3.1,3.6,26,0.00,,---,0.00,VWS V12.07,2013-02-19 12:52:00,
2013-02-19 08:00:00,28.6,-2.8,29.91,WSW,257,0.0,3.6,25,0.00,,---,0.00,VWS V12.07,2013-02-19 13:00:00,
2013-02-19 08:08:00,29.3,-2.2,29.91,SW,233,3.6,6.3,25,0.00,,---,0.00,VWS V12.07,2013-02-19 13:08:00,
2013-02-19 08:16:00,29.8,-1.7,29.91,WSW,243,6.3,6.3,25,0.00,,---,0.00,VWS V12.07,2013-02-19 13:16:00,
2013-02-19 08:23:00,30.4,-1.2,29.91,WSW,246,2.7,6.3,25,0.00,,---,0.00,VWS V12.07,2013-02-19 13:23:00,
2013-02-19 08:31:00,30.9,-0.8,29.91,West,261,7.2,7.2,25,0.00,,---,0.00,VWS V12.07,2013-02-19 13:31:00,
2013-02-19 08:38:00,31.5,-0.3,29.91,SW,224,2.7,7.2,25,0.00,,---,0.00,VWS V12.07,2013-02-19 13:38:00,
2013-02-19 08:46:00,32.4,0.5,29.91,SW,227,4.0,5.4,25,0.00,,---,0.00,VWS V12.07,2013-02-19 13:46:00,
2013-02-19 08:54:00,33.1,3.5,29.91,WSW,254,6.3,6.3,28,0.00,,---,0.00,VWS V12.07,2013-02-19 13:54:00,
2013-02-19 09:01:00,34.3,3.8,29.91,WSW,251,3.1,4.0,27,0.00,,---,0.00,VWS V12.07,2013-02-19 14:01:00,
2013-02-19 09:08:00,36.0,5.2,29.91,WSW,241,4.0,8.3,27,0.00,,---,0.00,VWS V12.07,2013-02-19 14:08:00,
2013-02-19 09:16:00,37.4,5.7,29.91,WSW,238,0.0,4.5,26,0.00,,---,0.00,VWS V12.07,2013-02-19 14:16:00,
2013-02-19 09:24:00,38.5,4.8,29.88,WNW,283,5.8,8.1,24,0.00,,---,0.00,VWS V12.07,2013-02-19 14:24:00,
2013-02-19 09:32:00,39.0,5.3,29.88,WSW,240,4.9,5.4,24,0.00,,---,0.00,VWS V12.07,2013-02-19 14:32:00,
2013-02-19 09:40:00,39.7,5.0,29.88,WSW,240,3.6,8.1,23,0.00,,---,0.00,VWS V12.07,2013-02-19 14:40:00,
2013-02-19 09:49:00,40.5,5.6,29.88,WNW,289,5.8,6.7,23,0.00,,---,0.00,VWS V12.07,2013-02-19 14:49:00,
2013-02-19 09:57:00,41.2,8.9,29.88,WSW,248,3.6,7.6,26,0.00,,---,0.00,VWS V12.07,2013-02-19 14:57:00,
2013-02-19 10:05:00,42.1,9.7,29.88,WSW,248,0.0,5.4,26,0.00,,---,0.00,VWS V12.07,2013-02-19 15:05:00,
2013-02-19 10:12:00,42.8,9.4,29.88,WSW,240,2.7,5.8,25,0.00,,---,0.00,VWS V12.07,2013-02-19 15:12:00,
2013-02-19 10:18:00,43.2,9.7,29.88,SE,143,2.2,5.8,25,0.00,,---,0.00,VWS V12.07,2013-02-19 15:18:00,
2013-02-19 10:26:00,43.5,10.0,29.88,SW,220,3.1,8.3,25,0.00,,---,0.00,VWS V12.07,2013-02-19 15:26:00,
2013-02-19 10:34:00,44.1,10.5,29.85,West,268,5.8,6.3,25,0.00,,---,0.00,VWS V12.07,2013-02-19 15:34:00,
2013-02-19 10:42:00,44.1,10.5,29.85,SW,223,2.7,6.3,25,0.00,,---,0.00,VWS V12.07,2013-02-19 15:42:00,
2013-02-19 10:50:00,44.1,10.5,29.85,SW,229,4.0,4.9,25,0.00,,---,0.00,VWS V12.07,2013-02-19 15:50:00,
2013-02-19 10:58:00,44.2,10.7,29.85,SSW,207,5.8,5.8,25,0.00,,---,0.00,VWS V12.07,2013-02-19 15:58:00,
2013-02-19 11:06:00,44.6,11.0,29.85,SW,233,4.9,5.4,25,0.00,,---,0.00,VWS V12.07,2013-02-19 16:06:00,
2013-02-19 11:14:00,44.6,11.0,29.85,SW,225,0.0,0.0,25,0.00,,---,0.00,VWS V12.07,2013-02-19 16:14:00,
2013-02-19 11:22:00,45.0,11.3,29.85,SW,233,2.7,5.4,25,0.00,,---,0.00,VWS V12.07,2013-02-19 16:22:00,
2013-02-19 11:30:00,45.1,11.4,29.85,SW,220,2.7,4.0,25,0.00,,---,0.00,VWS V12.07,2013-02-19 16:30:00,
2013-02-19 11:38:00,45.5,11.7,29.85,SSW,208,0.0,4.9,25,0.00,,---,0.00,VWS V12.07,2013-02-19 16:38:00,
2013-02-19 11:46:00,46.2,12.4,29.85,SSW,204,0.0,3.1,25,0.00,,---,0.00,VWS V12.07,2013-02-19 16:46:00,
2013-02-19 11:55:00,46.9,12.1,29.83,WSW,248,3.1,8.1,24,0.00,,---,0.00,VWS V12.07,2013-02-19 16:55:00,
2013-02-19 12:02:00,47.1,12.2,29.83,SW,229,4.9,4.9,24,0.00,,---,0.00,VWS V12.07,2013-02-19 17:02:00,
2013-02-19 12:10:00,47.1,12.2,29.83,SW,236,3.1,5.4,24,0.00,,---,0.00,VWS V12.07,2013-02-19 17:10:00,
2013-02-19 12:17:00,47.3,12.4,29.83,SSE,163,0.0,3.6,24,0.00,,---,0.00,VWS V12.07,2013-02-19 17:17:00,
2013-02-19 12:25:00,47.5,12.5,29.80,SSE,152,0.0,7.6,24,0.00,,---,0.00,VWS V12.07,2013-02-19 17:25:00,
2013-02-19 12:33:00,47.3,12.4,29.80,ESE,104,0.0,3.6,24,0.00,,---,0.00,VWS V12.07,2013-02-19 17:33:00,
2013-02-19 12:41:00,47.3,12.4,29.80,SE,143,2.2,4.0,24,0.00,,---,0.00,VWS V12.07,2013-02-19 17:41:00,
2013-02-19 12:49:00,47.3,12.4,29.77,WSW,239,3.1,5.4,24,0.00,,---,0.00,VWS V12.07,2013-02-19 17:49:00,
2013-02-19 12:57:00,47.7,12.7,29.77,SW,231,4.9,7.6,24,0.00,,---,0.00,VWS V12.07,2013-02-19 17:57:00,
2013-02-19 13:05:00,48.6,13.4,29.77,SW,224,2.7,5.4,24,0.00,,---,0.00,VWS V12.07,2013-02-19 18:05:00,
2013-02-19 13:13:00,48.7,13.6,29.77,SSE,147,2.7,5.4,24,0.00,,---,0.00,VWS V12.07,2013-02-19 18:13:00,
2013-02-19 13:21:00,48.4,13.3,29.77,SSW,208,0.0,5.8,24,0.00,,---,0.00,VWS V12.07,2013-02-19 18:21:00,
2013-02-19 13:29:00,48.0,15.6,29.77,SW,218,3.1,3.1,27,0.00,,---,0.00,VWS V12.07,2013-02-19 18:29:00,
2013-02-19 13:37:00,47.8,15.5,29.74,SW,219,3.6,5.8,27,0.00,,---,0.00,VWS V12.07,2013-02-19 18:37:00,
2013-02-19 13:45:00,47.8,15.5,29.74,South,169,3.1,4.0,27,0.00,,---,0.00,VWS V12.07,2013-02-19 18:45:00,
2013-02-19 13:53:00,47.5,15.2,29.74,SW,233,3.6,10.5,27,0.00,,---,0.00,VWS V12.07,2013-02-19 18:53:00,
2013-02-19 14:01:00,47.5,15.2,29.74,SW,233,5.8,7.6,27,0.00,,---,0.00,VWS V12.07,2013-02-19 19:01:00,
2013-02-19 14:09:00,47.5,15.2,29.74,WSW,244,4.0,7.6,27,0.00,,---,0.00,VWS V12.07,2013-02-19 19:09:00,
2013-02-19 14:17:00,47.7,15.3,29.74,SW,223,2.7,5.4,27,0.00,,---,0.00,VWS V12.07,2013-02-19 19:17:00,
2013-02-19 14:25:00,47.7,15.3,29.74,SW,226,5.4,8.1,27,0.00,,---,0.00,VWS V12.07,2013-02-19 19:25:00,
2013-02-19 14:33:00,47.5,15.2,29.74,WSW,257,3.1,4.0,27,0.00,,---,0.00,VWS V12.07,2013-02-19 19:33:00,
2013-02-19 14:41:00,47.1,14.9,29.71,WSW,254,2.7,8.3,27,0.00,,---,0.00,VWS V12.07,2013-02-19 19:41:00,
2013-02-19 14:49:00,46.9,14.7,29.71,WSW,237,3.6,5.8,27,0.00,,---,0.00,VWS V12.07,2013-02-19 19:49:00,
2013-02-19 14:57:00,46.9,14.7,29.71,West,260,4.0,6.3,27,0.00,,---,0.00,VWS V12.07,2013-02-19 19:57:00,
2013-02-19 15:05:00,46.8,14.6,29.71,SW,215,2.2,6.3,27,0.00,,---,0.00,VWS V12.07,2013-02-19 20:05:00,
2013-02-19 15:13:00,46.6,14.4,29.71,WSW,247,3.1,6.3,27,0.00,,---,0.00,VWS V12.07,2013-02-19 20:13:00,
2013-02-19 15:21:00,46.6,14.4,29.68,WSW,247,3.6,5.4,27,0.00,,---,0.00,VWS V12.07,2013-02-19 20:21:00,
2013-02-19 15:29:00,46.4,14.2,29.68,SSW,204,3.1,6.7,27,0.00,,---,0.00,VWS V12.07,2013-02-19 20:29:00,
2013-02-19 15:36:00,46.2,14.9,29.68,SW,236,3.6,7.2,28,0.00,,---,0.00,VWS V12.07,2013-02-19 20:36:00,
2013-02-19 15:44:00,46.2,14.9,29.68,WSW,242,4.0,7.2,28,0.00,,---,0.00,VWS V12.07,2013-02-19 20:44:00,
2013-02-19 15:52:00,46.4,15.1,29.68,SW,221,0.0,5.4,28,0.00,,---,0.00,VWS V12.07,2013-02-19 20:52:00,
2013-02-19 16:00:00,46.6,15.2,29.68,South,181,4.9,4.9,28,0.00,,---,0.00,VWS V12.07,2013-02-19 21:00:00,
2013-02-19 16:08:00,46.6,15.2,29.65,SSW,199,0.0,4.9,28,0.00,,---,0.00,VWS V12.07,2013-02-19 21:08:00,
2013-02-19 16:16:00,46.8,16.2,29.65,SW,233,6.3,6.3,29,0.00,,---,0.00,VWS V12.07,2013-02-19 21:16:00,
2013-02-19 16:24:00,46.8,16.2,29.65,WSW,250,4.0,6.7,29,0.00,,---,0.00,VWS V12.07,2013-02-19 21:24:00,
2013-02-19 16:30:00,46.6,16.0,29.65,WSW,239,2.7,3.6,29,0.00,,---,0.00,VWS V12.07,2013-02-19 21:30:00,
2013-02-19 16:37:00,46.4,17.4,29.65,SW,220,3.1,5.4,31,0.00,,---,0.00,VWS V12.07,2013-02-19 21:37:00,
2013-02-19 16:44:00,46.0,18.6,29.65,WSW,242,3.6,8.7,33,0.00,,---,0.00,VWS V12.07,2013-02-19 21:44:00,
2013-02-19 16:51:00,45.9,19.8,29.65,SW,233,3.6,6.3,35,0.00,,---,0.00,VWS V12.07,2013-02-19 21:51:00,
2013-02-19 16:57:00,45.5,20.1,29.65,SSW,197,0.0,6.3,36,0.00,,---,0.00,VWS V12.07,2013-02-19 21:57:00,
2013-02-19 17:04:00,45.3,20.6,29.65,WSW,246,3.6,5.8,37,0.00,,---,0.00,VWS V12.07,2013-02-19 22:04:00,
2013-02-19 17:12:00,45.0,20.9,29.65,SW,230,2.7,6.3,38,0.00,,---,0.00,VWS V12.07,2013-02-19 22:12:00,
2013-02-19 17:20:00,45.0,21.5,29.62,WNW,287,3.1,5.8,39,0.00,,---,0.00,VWS V12.07,2013-02-19 22:20:00,
2013-02-19 17:27:00,45.1,21.7,29.62,SW,235,0.0,6.3,39,0.00,,---,0.00,VWS V12.07,2013-02-19 22:27:00,
2013-02-19 17:33:00,45.1,21.7,29.62,West,266,0.0,2.7,39,0.00,,---,0.00,VWS V12.07,2013-02-19 22:33:00,
2013-02-19 17:39:00,45.0,21.5,29.62,SW,229,0.0,5.8,39,0.00,,---,0.00,VWS V12.07,2013-02-19 22:39:00,
2013-02-19 17:44:00,45.0,22.1,29.62,West,262,0.0,5.8,40,0.00,,---,0.00,VWS V12.07,2013-02-19 22:44:00,
2013-02-19 17:51:00,44.8,22.0,29.59,South,175,0.0,4.0,40,0.00,,---,0.00,VWS V12.07,2013-02-19 22:51:00,
2013-02-19 17:59:00,44.8,22.5,29.59,SE,131,0.0,5.8,41,0.00,,---,0.00,VWS V12.07,2013-02-19 22:59:00,
2013-02-19 18:07:00,44.6,22.4,29.59,ENE,62,2.2,4.9,41,0.00,,---,0.00,VWS V12.07,2013-02-19 23:07:00,
2013-02-19 18:13:00,44.1,22.5,29.59,SE,124,0.0,4.9,42,0.00,,---,0.00,VWS V12.07,2013-02-19 23:13:00,
2013-02-19 18:21:00,43.7,22.1,29.59,ENE,61,0.0,4.9,42,0.00,,---,0.00,VWS V12.07,2013-02-19 23:21:00,
2013-02-19 18:28:00,43.3,22.4,29.59,SE,141,0.0,4.9,43,0.00,,---,0.00,VWS V12.07,2013-02-19 23:28:00,
2013-02-19 18:35:00,43.2,22.7,29.56,East,95,2.7,4.0,44,0.00,,---,0.00,VWS V12.07,2013-02-19 23:35:00,
2013-02-19 18:43:00,43.0,23.1,29.56,SE,146,0.0,4.0,45,0.00,,---,0.00,VWS V12.07,2013-02-19 23:43:00,
2013-02-19 18:50:00,42.8,23.0,29.56,SE,137,0.0,3.6,45,0.00,,---,0.00,VWS V12.07,2013-02-19 23:50:00,
2013-02-19 18:57:00,42.4,23.1,29.56,SE,137,0.0,3.6,46,0.00,,---,0.00,VWS V12.07,2013-02-19 23:57:00,
2013-02-19 19:05:00,42.3,24.0,29.56,ESE,123,0.0,3.6,48,0.00,,---,0.00,VWS V12.07,2013-02-20 00:05:00,
2013-02-19 19:13:00,41.9,24.1,29.56,ESE,123,2.7,3.6,49,0.00,,---,0.00,VWS V12.07,2013-02-20 00:13:00,
2013-02-19 19:19:00,41.7,24.0,29.56,ESE,122,0.0,3.1,49,0.00,,---,0.00,VWS V12.07,2013-02-20 00:19:00,
2013-02-19 19:26:00,41.7,24.9,29.56,ESE,120,0.0,4.0,51,0.00,,---,0.00,VWS V12.07,2013-02-20 00:26:00,
2013-02-19 19:33:00,41.7,25.4,29.56,ESE,119,0.0,4.9,52,0.00,,---,0.00,VWS V12.07,2013-02-20 00:33:00,
2013-02-19 19:40:00,41.9,26.5,29.53,ENE,60,2.7,4.9,54,0.04,,---,0.04,VWS V12.07,2013-02-20 00:40:00,
2013-02-19 19:47:00,42.1,27.5,29.53,SE,140,0.0,3.6,56,0.04,,---,0.04,VWS V12.07,2013-02-20 00:47:00,
2013-02-19 19:54:00,42.3,27.7,29.50,East,100,3.1,4.9,56,0.04,,---,0.04,VWS V12.07,2013-02-20 00:54:00,
2013-02-19 20:00:00,42.4,28.3,29.50,East,85,0.0,0.0,57,0.08,,---,0.08,VWS V12.07,2013-02-20 01:00:00,
2013-02-19 20:08:00,42.4,28.7,29.50,SE,143,5.8,5.8,58,0.08,,---,0.08,VWS V12.07,2013-02-20 01:08:00,
2013-02-19 20:14:00,42.6,29.3,29.50,SE,126,0.0,5.8,59,0.08,,---,0.08,VWS V12.07,2013-02-20 01:14:00,
2013-02-19 20:20:00,42.6,29.7,29.47,SSE,155,3.1,6.7,60,0.08,,---,0.08,VWS V12.07,2013-02-20 01:20:00,
2013-02-19 20:27:00,42.6,30.5,29.47,SE,135,2.7,6.7,62,0.08,,---,0.08,VWS V12.07,2013-02-20 01:27:00,
2013-02-19 20:34:00,42.8,31.5,29.47,SE,129,2.7,4.0,64,0.08,,---,0.08,VWS V12.07,2013-02-20 01:34:00,
2013-02-19 20:42:00,43.0,32.4,29.47,SE,128,0.0,6.3,66,0.12,,---,0.12,VWS V12.07,2013-02-20 01:42:00,
2013-02-19 20:48:00,43.0,32.8,29.47,ENE,78,2.7,3.1,67,0.08,,---,0.12,VWS V12.07,2013-02-20 01:48:00,
2013-02-19 20:55:00,43.0,33.2,29.44,SSE,163,0.0,4.9,68,0.08,,---,0.12,VWS V12.07,2013-02-20 01:55:00,
2013-02-19 21:01:00,42.8,33.0,29.44,NE,44,3.1,3.6,68,0.04,,---,0.12,VWS V12.07,2013-02-20 02:01:00,
2013-02-19 21:08:00,42.8,33.7,29.44,East,101,0.0,5.8,70,0.04,,---,0.12,VWS V12.07,2013-02-20 02:08:00,
2013-02-19 21:15:00,42.8,34.1,29.44,East,82,0.0,0.0,71,0.08,,---,0.16,VWS V12.07,2013-02-20 02:15:00,
2013-02-19 21:21:00,42.8,34.4,29.41,SE,146,0.0,3.1,72,0.08,,---,0.16,VWS V12.07,2013-02-20 02:21:00,
2013-02-19 21:27:00,42.4,34.1,29.41,SE,146,0.0,3.1,72,0.08,,---,0.16,VWS V12.07,2013-02-20 02:27:00,
2013-02-19 21:34:00,42.4,34.1,29.41,East,96,2.2,3.1,72,0.08,,---,0.16,VWS V12.07,2013-02-20 02:34:00,
2013-02-19 21:40:00,42.4,34.4,29.44,SSE,154,0.0,4.0,73,0.08,,---,0.16,VWS V12.07,2013-02-20 02:40:00,
2013-02-19 21:47:00,42.4,34.4,29.44,SSE,154,0.0,0.0,73,0.04,,---,0.16,VWS V12.07,2013-02-20 02:47:00,
2013-02-19 21:54:00,42.3,33.9,29.41,SSE,154,0.0,3.1,72,0.04,,---,0.16,VWS V12.07,2013-02-20 02:54:00,
2013-02-19 22:00:00,42.3,33.9,29.41,SSE,154,2.7,3.1,72,0.04,,---,0.16,VWS V12.07,2013-02-20 03:00:00,
2013-02-19 22:08:00,41.9,33.5,29.41,NW,309,0.0,4.0,72,0.04,,---,0.16,VWS V12.07,2013-02-20 03:08:00,
2013-02-19 22:15:00,41.9,33.9,29.41,NW,309,0.0,0.0,73,0.08,,---,0.20,VWS V12.07,2013-02-20 03:15:00,
2013-02-19 22:22:00,42.1,34.1,29.41,NW,309,0.0,0.0,73,0.04,,---,0.20,VWS V12.07,2013-02-20 03:22:00,
2013-02-19 22:29:00,42.3,34.2,29.41,NW,310,0.0,0.0,73,0.04,,---,0.20,VWS V12.07,2013-02-20 03:29:00,
2013-02-19 22:34:00,42.4,34.4,29.41,WSW,240,0.0,3.6,73,0.08,,---,0.24,VWS V12.07,2013-02-20 03:34:00,
2013-02-19 22:40:00,42.6,34.9,29.41,WSW,240,0.0,3.6,74,0.08,,---,0.24,VWS V12.07,2013-02-20 03:40:00,
2013-02-19 22:47:00,42.4,34.4,29.41,WSW,240,0.0,0.0,73,0.08,,---,0.24,VWS V12.07,2013-02-20 03:47:00,
2013-02-19 22:53:00,42.4,34.4,29.38,WSW,240,0.0,0.0,73,0.08,,---,0.24,VWS V12.07,2013-02-20 03:53:00,
2013-02-19 22:59:00,42.3,34.2,29.38,WSW,240,0.0,0.0,73,0.08,,---,0.24,VWS V12.07,2013-02-20 03:59:00,
2013-02-19 23:05:00,42.3,34.2,29.38,WSW,241,0.0,0.0,73,0.08,,---,0.24,VWS V12.07,2013-02-20 04:05:00,
2013-02-19 23:12:00,42.1,34.1,29.38,WSW,240,0.0,0.0,73,0.08,,---,0.24,VWS V12.07,2013-02-20 04:12:00,
2013-02-19 23:18:00,41.7,33.7,29.38,WSW,240,0.0,0.0,73,0.04,,---,0.24,VWS V12.07,2013-02-20 04:18:00,
2013-02-19 23:24:00,41.2,32.8,29.38,WSW,240,0.0,0.0,72,0.04,,---,0.24,VWS V12.07,2013-02-20 04:24:00,
2013-02-19 23:30:00,41.0,33.0,29.38,WSW,240,0.0,0.0,73,0.04,,---,0.24,VWS V12.07,2013-02-20 04:30:00,
2013-02-19 23:37:00,41.0,33.0,29.38,WSW,240,0.0,0.0,73,0.04,,---,0.24,VWS V12.07,2013-02-20 04:37:00,
2013-02-19 23:44:00,41.2,33.5,29.38,WSW,241,0.0,0.0,74,0.04,,---,0.24,VWS V12.07,2013-02-20 04:44:00,
2013-02-19 23:50:00,41.5,33.9,29.38,WSW,241,0.0,0.0,74,0.00,,---,0.24,VWS V12.07,2013-02-20 04:50:00,
2013-02-19 23:57:00,41.7,34.1,29.38,WSW,248,3.1,3.6,74,0.00,,---,0.24,VWS V12.07,2013-02-20 04:57:00,